sensor_id;sensor_type;location;lat;lon;timestamp;P1;durP1;ratioP1;P2;durP2;ratioP2
71503;SDS011;59323;50.874;7.028;2023-03-01T00:01:30;13.57;;;4.10;;
71503;SDS011;59323;50.874;7.028;2023-03-01T00:03:57;9.87;;;4.00;;
71503;SDS011;59323;50.874;7.028;2023-03-01T00:06:23;11.02;;;4.28;;
71503;SDS011;59323;50.874;7.028;2023-03-01T00:08:49;11.57;;;4.28;;
71503;SDS011;59323;50.874;7.028;2023-03-01T00:14:01;12.30;;;4.00;;
71503;SDS011;59323;50.874;7.028;2023-03-01T00:16:31;11.55;;;4.13;;
71503;SDS011;59323;50.874;7.028;2023-03-01T00:19:04;9.93;;;4.00;;
71503;SDS011;59323;50.874;7.028;2023-03-01T00:21:30;15.35;;;4.40;;
71503;SDS011;59323;50.874;7.028;2023-03-01T00:23:56;15.30;;;4.63;;
71503;SDS011;59323;50.874;7.028;2023-03-01T00:26:22;10.88;;;4.20;;
71503;SDS011;59323;50.874;7.028;2023-03-01T00:28:48;13.80;;;4.70;;
71503;SDS011;59323;50.874;7.028;2023-03-01T00:31:15;11.13;;;4.27;;
71503;SDS011;59323;50.874;7.028;2023-03-01T00:33:43;13.35;;;4.68;;
71503;SDS011;59323;50.874;7.028;2023-03-01T00:36:09;11.73;;;4.50;;
71503;SDS011;59323;50.874;7.028;2023-03-01T00:38:35;11.88;;;4.53;;
71503;SDS011;59323;50.874;7.028;2023-03-01T00:41:05;11.82;;;4.30;;
71503;SDS011;59323;50.874;7.028;2023-03-01T00:43:32;11.93;;;4.60;;
71503;SDS011;59323;50.874;7.028;2023-03-01T00:46:02;11.50;;;4.22;;
71503;SDS011;59323;50.874;7.028;2023-03-01T00:48:31;14.60;;;4.28;;
71503;SDS011;59323;50.874;7.028;2023-03-01T00:50:57;11.43;;;3.67;;
71503;SDS011;59323;50.874;7.028;2023-03-01T00:53:28;11.45;;;4.05;;
71503;SDS011;59323;50.874;7.028;2023-03-01T00:55:53;9.83;;;3.90;;
71503;SDS011;59323;50.874;7.028;2023-03-01T00:58:22;11.40;;;3.97;;
71503;SDS011;59323;50.874;7.028;2023-03-01T01:00:47;10.55;;;4.20;;
71503;SDS011;59323;50.874;7.028;2023-03-01T01:03:12;11.33;;;4.17;;
71503;SDS011;59323;50.874;7.028;2023-03-01T01:05:38;10.83;;;4.33;;
71503;SDS011;59323;50.874;7.028;2023-03-01T01:08:03;10.83;;;4.13;;
71503;SDS011;59323;50.874;7.028;2023-03-01T01:10:28;11.30;;;3.97;;
71503;SDS011;59323;50.874;7.028;2023-03-01T01:12:54;12.23;;;4.70;;
71503;SDS011;59323;50.874;7.028;2023-03-01T01:15:19;11.48;;;4.03;;
71503;SDS011;59323;50.874;7.028;2023-03-01T01:17:44;12.13;;;4.37;;
71503;SDS011;59323;50.874;7.028;2023-03-01T01:20:10;16.83;;;4.63;;
71503;SDS011;59323;50.874;7.028;2023-03-01T01:22:36;11.32;;;4.43;;
71503;SDS011;59323;50.874;7.028;2023-03-01T01:25:01;12.63;;;4.53;;
71503;SDS011;59323;50.874;7.028;2023-03-01T01:27:26;11.47;;;3.90;;
71503;SDS011;59323;50.874;7.028;2023-03-01T01:29:55;12.07;;;4.70;;
71503;SDS011;59323;50.874;7.028;2023-03-01T01:32:20;14.30;;;4.72;;
71503;SDS011;59323;50.874;7.028;2023-03-01T01:34:45;15.10;;;4.57;;
71503;SDS011;59323;50.874;7.028;2023-03-01T01:37:11;12.33;;;4.50;;
71503;SDS011;59323;50.874;7.028;2023-03-01T01:39:37;12.82;;;4.20;;
71503;SDS011;59323;50.874;7.028;2023-03-01T01:42:02;10.70;;;4.20;;
71503;SDS011;59323;50.874;7.028;2023-03-01T01:44:28;11.67;;;4.50;;
71503;SDS011;59323;50.874;7.028;2023-03-01T01:52:17;12.15;;;5.18;;
71503;SDS011;59323;50.874;7.028;2023-03-01T01:57:26;11.90;;;4.50;;
71503;SDS011;59323;50.874;7.028;2023-03-01T01:59:58;13.82;;;4.70;;
71503;SDS011;59323;50.874;7.028;2023-03-01T02:02:28;11.15;;;3.72;;
71503;SDS011;59323;50.874;7.028;2023-03-01T02:04:56;13.50;;;4.87;;
71503;SDS011;59323;50.874;7.028;2023-03-01T02:07:35;14.05;;;4.57;;
71503;SDS011;59323;50.874;7.028;2023-03-01T02:10:03;11.20;;;4.40;;
71503;SDS011;59323;50.874;7.028;2023-03-01T02:12:29;10.30;;;3.87;;
71503;SDS011;59323;50.874;7.028;2023-03-01T02:14:56;15.38;;;4.25;;
71503;SDS011;59323;50.874;7.028;2023-03-01T02:17:21;13.63;;;4.30;;
71503;SDS011;59323;50.874;7.028;2023-03-01T02:22:32;12.63;;;4.38;;
71503;SDS011;59323;50.874;7.028;2023-03-01T02:27:37;15.30;;;4.40;;
71503;SDS011;59323;50.874;7.028;2023-03-01T02:30:11;14.00;;;4.10;;
71503;SDS011;59323;50.874;7.028;2023-03-01T02:32:38;9.60;;;3.58;;
71503;SDS011;59323;50.874;7.028;2023-03-01T02:35:06;12.68;;;4.65;;
71503;SDS011;59323;50.874;7.028;2023-03-01T02:37:35;11.43;;;4.10;;
71503;SDS011;59323;50.874;7.028;2023-03-01T02:40:02;10.93;;;4.28;;
71503;SDS011;59323;50.874;7.028;2023-03-01T02:42:31;12.32;;;4.05;;
71503;SDS011;59323;50.874;7.028;2023-03-01T02:45:01;12.37;;;4.37;;
71503;SDS011;59323;50.874;7.028;2023-03-01T02:47:26;13.00;;;4.72;;
71503;SDS011;59323;50.874;7.028;2023-03-01T02:49:52;12.97;;;4.30;;
71503;SDS011;59323;50.874;7.028;2023-03-01T02:52:28;11.63;;;4.50;;
71503;SDS011;59323;50.874;7.028;2023-03-01T02:54:58;8.63;;;3.75;;
71503;SDS011;59323;50.874;7.028;2023-03-01T02:57:27;11.00;;;4.10;;
71503;SDS011;59323;50.874;7.028;2023-03-01T02:59:55;11.37;;;4.40;;
71503;SDS011;59323;50.874;7.028;2023-03-01T03:02:23;13.35;;;4.45;;
71503;SDS011;59323;50.874;7.028;2023-03-01T03:07:38;11.75;;;4.03;;
71503;SDS011;59323;50.874;7.028;2023-03-01T03:10:13;10.63;;;4.05;;
71503;SDS011;59323;50.874;7.028;2023-03-01T03:12:50;9.73;;;3.70;;
71503;SDS011;59323;50.874;7.028;2023-03-01T03:15:16;11.48;;;4.38;;
71503;SDS011;59323;50.874;7.028;2023-03-01T03:17:45;10.88;;;4.00;;
71503;SDS011;59323;50.874;7.028;2023-03-01T03:20:11;11.02;;;3.78;;
71503;SDS011;59323;50.874;7.028;2023-03-01T03:22:43;10.63;;;3.90;;
71503;SDS011;59323;50.874;7.028;2023-03-01T03:25:13;12.68;;;4.47;;
71503;SDS011;59323;50.874;7.028;2023-03-01T03:27:38;12.50;;;4.13;;
71503;SDS011;59323;50.874;7.028;2023-03-01T03:30:06;11.57;;;4.15;;
71503;SDS011;59323;50.874;7.028;2023-03-01T03:32:36;12.50;;;4.30;;
71503;SDS011;59323;50.874;7.028;2023-03-01T03:35:05;11.35;;;4.15;;
71503;SDS011;59323;50.874;7.028;2023-03-01T03:37:40;10.90;;;3.85;;
71503;SDS011;59323;50.874;7.028;2023-03-01T03:40:25;11.27;;;3.60;;
71503;SDS011;59323;50.874;7.028;2023-03-01T03:42:52;12.85;;;4.10;;
71503;SDS011;59323;50.874;7.028;2023-03-01T03:45:17;9.83;;;4.03;;
71503;SDS011;59323;50.874;7.028;2023-03-01T03:47:43;12.90;;;4.07;;
71503;SDS011;59323;50.874;7.028;2023-03-01T03:50:10;13.27;;;4.63;;
71503;SDS011;59323;50.874;7.028;2023-03-01T03:52:36;12.53;;;4.80;;
71503;SDS011;59323;50.874;7.028;2023-03-01T03:55:02;9.95;;;4.18;;
71503;SDS011;59323;50.874;7.028;2023-03-01T03:57:28;13.60;;;4.13;;
71503;SDS011;59323;50.874;7.028;2023-03-01T03:59:53;10.73;;;4.05;;
71503;SDS011;59323;50.874;7.028;2023-03-01T04:02:24;9.80;;;4.00;;
71503;SDS011;59323;50.874;7.028;2023-03-01T04:04:50;12.75;;;4.43;;
71503;SDS011;59323;50.874;7.028;2023-03-01T04:07:16;10.25;;;4.13;;
71503;SDS011;59323;50.874;7.028;2023-03-01T04:09:42;12.00;;;4.90;;
71503;SDS011;59323;50.874;7.028;2023-03-01T04:12:08;12.57;;;4.55;;
71503;SDS011;59323;50.874;7.028;2023-03-01T04:14:33;13.75;;;4.85;;
71503;SDS011;59323;50.874;7.028;2023-03-01T04:16:59;19.47;;;4.97;;
71503;SDS011;59323;50.874;7.028;2023-03-01T04:19:24;11.60;;;3.90;;
71503;SDS011;59323;50.874;7.028;2023-03-01T04:21:49;10.40;;;3.90;;
71503;SDS011;59323;50.874;7.028;2023-03-01T04:24:15;11.57;;;4.25;;
71503;SDS011;59323;50.874;7.028;2023-03-01T04:26:40;11.13;;;4.10;;
71503;SDS011;59323;50.874;7.028;2023-03-01T04:29:05;12.67;;;4.70;;
71503;SDS011;59323;50.874;7.028;2023-03-01T04:31:31;13.87;;;3.70;;
71503;SDS011;59323;50.874;7.028;2023-03-01T04:33:56;12.20;;;4.60;;
71503;SDS011;59323;50.874;7.028;2023-03-01T04:36:22;13.83;;;4.53;;
71503;SDS011;59323;50.874;7.028;2023-03-01T04:38:50;12.75;;;4.65;;
71503;SDS011;59323;50.874;7.028;2023-03-01T04:41:16;12.90;;;5.05;;
71503;SDS011;59323;50.874;7.028;2023-03-01T04:43:44;13.90;;;4.93;;
71503;SDS011;59323;50.874;7.028;2023-03-01T04:46:14;12.60;;;3.93;;
71503;SDS011;59323;50.874;7.028;2023-03-01T04:48:41;13.20;;;4.85;;
71503;SDS011;59323;50.874;7.028;2023-03-01T04:51:08;11.30;;;4.30;;
71503;SDS011;59323;50.874;7.028;2023-03-01T04:53:34;13.53;;;4.23;;
71503;SDS011;59323;50.874;7.028;2023-03-01T04:56:02;11.05;;;4.05;;
71503;SDS011;59323;50.874;7.028;2023-03-01T04:58:28;11.82;;;4.60;;
71503;SDS011;59323;50.874;7.028;2023-03-01T05:00:54;13.10;;;4.60;;
71503;SDS011;59323;50.874;7.028;2023-03-01T05:03:20;14.02;;;5.13;;
71503;SDS011;59323;50.874;7.028;2023-03-01T05:05:48;12.00;;;4.60;;
71503;SDS011;59323;50.874;7.028;2023-03-01T05:08:15;11.88;;;4.25;;
71503;SDS011;59323;50.874;7.028;2023-03-01T05:10:48;14.27;;;4.72;;
71503;SDS011;59323;50.874;7.028;2023-03-01T05:13:15;14.23;;;4.60;;
71503;SDS011;59323;50.874;7.028;2023-03-01T05:15:46;14.90;;;4.95;;
71503;SDS011;59323;50.874;7.028;2023-03-01T05:18:23;11.10;;;3.93;;
71503;SDS011;59323;50.874;7.028;2023-03-01T05:20:51;16.50;;;5.65;;
71503;SDS011;59323;50.874;7.028;2023-03-01T05:23:37;12.45;;;4.57;;
71503;SDS011;59323;50.874;7.028;2023-03-01T05:26:03;13.70;;;5.03;;
71503;SDS011;59323;50.874;7.028;2023-03-01T05:28:30;12.67;;;4.27;;
71503;SDS011;59323;50.874;7.028;2023-03-01T05:30:55;15.60;;;5.13;;
71503;SDS011;59323;50.874;7.028;2023-03-01T05:33:21;13.10;;;5.03;;
71503;SDS011;59323;50.874;7.028;2023-03-01T05:35:47;14.70;;;5.22;;
71503;SDS011;59323;50.874;7.028;2023-03-01T05:38:13;13.00;;;5.17;;
71503;SDS011;59323;50.874;7.028;2023-03-01T05:40:40;15.32;;;5.10;;
71503;SDS011;59323;50.874;7.028;2023-03-01T05:43:10;13.23;;;4.60;;
71503;SDS011;59323;50.874;7.028;2023-03-01T05:45:37;11.50;;;4.50;;
71503;SDS011;59323;50.874;7.028;2023-03-01T05:48:04;11.93;;;5.22;;
71503;SDS011;59323;50.874;7.028;2023-03-01T05:50:32;14.60;;;5.20;;
71503;SDS011;59323;50.874;7.028;2023-03-01T05:53:01;12.73;;;4.43;;
71503;SDS011;59323;50.874;7.028;2023-03-01T05:55:27;13.05;;;4.63;;
71503;SDS011;59323;50.874;7.028;2023-03-01T05:57:53;15.13;;;4.93;;
71503;SDS011;59323;50.874;7.028;2023-03-01T06:00:19;12.07;;;4.60;;
71503;SDS011;59323;50.874;7.028;2023-03-01T06:02:49;13.55;;;4.82;;
71503;SDS011;59323;50.874;7.028;2023-03-01T06:05:16;16.42;;;5.00;;
71503;SDS011;59323;50.874;7.028;2023-03-01T06:07:42;13.80;;;4.73;;
71503;SDS011;59323;50.874;7.028;2023-03-01T06:10:09;12.45;;;4.70;;
71503;SDS011;59323;50.874;7.028;2023-03-01T06:12:36;14.15;;;5.15;;
71503;SDS011;59323;50.874;7.028;2023-03-01T06:15:03;13.65;;;5.18;;
71503;SDS011;59323;50.874;7.028;2023-03-01T06:17:30;12.95;;;4.50;;
71503;SDS011;59323;50.874;7.028;2023-03-01T06:19:56;12.00;;;4.47;;
71503;SDS011;59323;50.874;7.028;2023-03-01T06:22:22;14.20;;;5.60;;
71503;SDS011;59323;50.874;7.028;2023-03-01T06:24:47;13.20;;;4.70;;
71503;SDS011;59323;50.874;7.028;2023-03-01T06:27:13;12.60;;;4.17;;
71503;SDS011;59323;50.874;7.028;2023-03-01T06:29:38;12.77;;;5.00;;
71503;SDS011;59323;50.874;7.028;2023-03-01T06:32:04;15.47;;;5.37;;
71503;SDS011;59323;50.874;7.028;2023-03-01T06:34:30;16.87;;;6.10;;
71503;SDS011;59323;50.874;7.028;2023-03-01T06:36:55;18.67;;;6.30;;
71503;SDS011;59323;50.874;7.028;2023-03-01T06:39:21;16.90;;;6.40;;
71503;SDS011;59323;50.874;7.028;2023-03-01T06:41:46;16.40;;;5.90;;
71503;SDS011;59323;50.874;7.028;2023-03-01T06:44:14;17.87;;;5.77;;
71503;SDS011;59323;50.874;7.028;2023-03-01T06:46:39;20.67;;;6.25;;
71503;SDS011;59323;50.874;7.028;2023-03-01T06:49:05;18.97;;;5.57;;
71503;SDS011;59323;50.874;7.028;2023-03-01T06:51:34;15.88;;;6.00;;
71503;SDS011;59323;50.874;7.028;2023-03-01T06:54:00;18.55;;;5.53;;
71503;SDS011;59323;50.874;7.028;2023-03-01T06:56:26;17.83;;;6.37;;
71503;SDS011;59323;50.874;7.028;2023-03-01T06:58:51;17.93;;;5.80;;
71503;SDS011;59323;50.874;7.028;2023-03-01T07:01:16;18.00;;;5.23;;
71503;SDS011;59323;50.874;7.028;2023-03-01T07:03:42;18.90;;;5.80;;
71503;SDS011;59323;50.874;7.028;2023-03-01T07:06:09;17.88;;;6.15;;
71503;SDS011;59323;50.874;7.028;2023-03-01T07:08:34;16.87;;;6.00;;
71503;SDS011;59323;50.874;7.028;2023-03-01T07:11:00;19.57;;;6.10;;
71503;SDS011;59323;50.874;7.028;2023-03-01T07:13:27;17.73;;;6.50;;
71503;SDS011;59323;50.874;7.028;2023-03-01T07:15:53;16.75;;;6.38;;
71503;SDS011;59323;50.874;7.028;2023-03-01T07:18:18;19.97;;;5.97;;
71503;SDS011;59323;50.874;7.028;2023-03-01T07:20:43;15.73;;;6.17;;
71503;SDS011;59323;50.874;7.028;2023-03-01T07:23:09;15.33;;;6.57;;
71503;SDS011;59323;50.874;7.028;2023-03-01T07:25:34;20.50;;;6.77;;
71503;SDS011;59323;50.874;7.028;2023-03-01T07:27:59;19.37;;;7.90;;
71503;SDS011;59323;50.874;7.028;2023-03-01T07:30:25;19.55;;;7.45;;
71503;SDS011;59323;50.874;7.028;2023-03-01T07:32:53;17.42;;;7.00;;
71503;SDS011;59323;50.874;7.028;2023-03-01T07:35:22;18.27;;;7.07;;
71503;SDS011;59323;50.874;7.028;2023-03-01T07:37:49;18.87;;;6.63;;
71503;SDS011;59323;50.874;7.028;2023-03-01T07:40:15;19.90;;;7.30;;
71503;SDS011;59323;50.874;7.028;2023-03-01T07:42:40;20.17;;;7.70;;
71503;SDS011;59323;50.874;7.028;2023-03-01T07:45:06;18.03;;;7.53;;
71503;SDS011;59323;50.874;7.028;2023-03-01T07:47:31;23.20;;;8.43;;
71503;SDS011;59323;50.874;7.028;2023-03-01T07:49:57;17.85;;;6.97;;
71503;SDS011;59323;50.874;7.028;2023-03-01T07:52:22;17.60;;;7.43;;
71503;SDS011;59323;50.874;7.028;2023-03-01T07:54:48;21.47;;;7.77;;
71503;SDS011;59323;50.874;7.028;2023-03-01T07:57:13;19.13;;;7.60;;
71503;SDS011;59323;50.874;7.028;2023-03-01T07:59:39;17.30;;;7.07;;
71503;SDS011;59323;50.874;7.028;2023-03-01T08:02:05;17.47;;;7.37;;
71503;SDS011;59323;50.874;7.028;2023-03-01T08:04:31;16.02;;;6.85;;
71503;SDS011;59323;50.874;7.028;2023-03-01T08:06:57;19.20;;;8.00;;
71503;SDS011;59323;50.874;7.028;2023-03-01T08:09:23;17.37;;;6.97;;
71503;SDS011;59323;50.874;7.028;2023-03-01T08:11:49;16.00;;;7.22;;
71503;SDS011;59323;50.874;7.028;2023-03-01T08:14:14;22.00;;;7.63;;
71503;SDS011;59323;50.874;7.028;2023-03-01T08:16:40;19.13;;;7.47;;
71503;SDS011;59323;50.874;7.028;2023-03-01T08:19:06;18.33;;;7.45;;
71503;SDS011;59323;50.874;7.028;2023-03-01T08:21:32;18.07;;;7.57;;
71503;SDS011;59323;50.874;7.028;2023-03-01T08:23:59;19.52;;;7.22;;
71503;SDS011;59323;50.874;7.028;2023-03-01T08:26:28;19.08;;;7.72;;
71503;SDS011;59323;50.874;7.028;2023-03-01T08:28:54;19.03;;;7.03;;
71503;SDS011;59323;50.874;7.028;2023-03-01T08:31:21;21.67;;;7.77;;
71503;SDS011;59323;50.874;7.028;2023-03-01T08:33:48;19.90;;;7.88;;
71503;SDS011;59323;50.874;7.028;2023-03-01T08:36:20;20.08;;;7.03;;
71503;SDS011;59323;50.874;7.028;2023-03-01T08:38:46;18.50;;;6.75;;
71503;SDS011;59323;50.874;7.028;2023-03-01T08:41:12;19.73;;;7.57;;
71503;SDS011;59323;50.874;7.028;2023-03-01T08:43:40;17.40;;;7.72;;
71503;SDS011;59323;50.874;7.028;2023-03-01T08:46:05;16.27;;;7.23;;
71503;SDS011;59323;50.874;7.028;2023-03-01T08:48:31;18.10;;;7.53;;
71503;SDS011;59323;50.874;7.028;2023-03-01T08:50:56;18.23;;;8.03;;
71503;SDS011;59323;50.874;7.028;2023-03-01T08:53:21;18.90;;;7.27;;
71503;SDS011;59323;50.874;7.028;2023-03-01T08:55:47;19.10;;;7.35;;
71503;SDS011;59323;50.874;7.028;2023-03-01T08:58:12;19.30;;;8.37;;
71503;SDS011;59323;50.874;7.028;2023-03-01T09:00:38;15.87;;;7.30;;
71503;SDS011;59323;50.874;7.028;2023-03-01T09:03:05;18.50;;;7.57;;
71503;SDS011;59323;50.874;7.028;2023-03-01T09:05:33;17.57;;;7.00;;
71503;SDS011;59323;50.874;7.028;2023-03-01T09:07:59;15.73;;;7.22;;
71503;SDS011;59323;50.874;7.028;2023-03-01T09:10:24;18.17;;;7.47;;
71503;SDS011;59323;50.874;7.028;2023-03-01T09:12:50;14.50;;;6.63;;
71503;SDS011;59323;50.874;7.028;2023-03-01T09:15:16;15.60;;;6.97;;
71503;SDS011;59323;50.874;7.028;2023-03-01T09:17:41;18.95;;;6.68;;
71503;SDS011;59323;50.874;7.028;2023-03-01T09:20:07;18.20;;;7.07;;
71503;SDS011;59323;50.874;7.028;2023-03-01T09:22:33;14.75;;;6.38;;
71503;SDS011;59323;50.874;7.028;2023-03-01T09:25:00;15.97;;;7.13;;
71503;SDS011;59323;50.874;7.028;2023-03-01T09:27:28;15.25;;;6.55;;
71503;SDS011;59323;50.874;7.028;2023-03-01T09:29:54;16.93;;;7.00;;
71503;SDS011;59323;50.874;7.028;2023-03-01T09:32:21;19.70;;;7.03;;
71503;SDS011;59323;50.874;7.028;2023-03-01T09:34:46;14.43;;;6.93;;
71503;SDS011;59323;50.874;7.028;2023-03-01T09:37:29;15.63;;;6.60;;
71503;SDS011;59323;50.874;7.028;2023-03-01T09:39:59;17.35;;;6.57;;
71503;SDS011;59323;50.874;7.028;2023-03-01T09:42:27;15.60;;;7.07;;
71503;SDS011;59323;50.874;7.028;2023-03-01T09:45:06;16.52;;;6.95;;
71503;SDS011;59323;50.874;7.028;2023-03-01T09:47:41;16.40;;;7.50;;
71503;SDS011;59323;50.874;7.028;2023-03-01T09:50:11;13.73;;;5.97;;
71503;SDS011;59323;50.874;7.028;2023-03-01T09:55:45;13.60;;;6.10;;
71503;SDS011;59323;50.874;7.028;2023-03-01T10:01:35;17.35;;;6.60;;
71503;SDS011;59323;50.874;7.028;2023-03-01T10:06:34;16.67;;;6.90;;
71503;SDS011;59323;50.874;7.028;2023-03-01T10:09:07;15.53;;;6.00;;
71503;SDS011;59323;50.874;7.028;2023-03-01T10:11:39;16.42;;;6.50;;
71503;SDS011;59323;50.874;7.028;2023-03-01T10:14:15;14.57;;;6.25;;
71503;SDS011;59323;50.874;7.028;2023-03-01T10:19:55;15.97;;;6.97;;
71503;SDS011;59323;50.874;7.028;2023-03-01T10:22:35;17.58;;;7.10;;
71503;SDS011;59323;50.874;7.028;2023-03-01T10:25:02;13.52;;;6.28;;
71503;SDS011;59323;50.874;7.028;2023-03-01T10:30:49;14.82;;;6.60;;
71503;SDS011;59323;50.874;7.028;2023-03-01T10:33:20;15.23;;;6.57;;
71503;SDS011;59323;50.874;7.028;2023-03-01T10:35:48;17.05;;;7.60;;
71503;SDS011;59323;50.874;7.028;2023-03-01T10:38:17;14.27;;;6.60;;
71503;SDS011;59323;50.874;7.028;2023-03-01T10:43:44;14.63;;;6.72;;
71503;SDS011;59323;50.874;7.028;2023-03-01T10:46:27;14.00;;;6.20;;
71503;SDS011;59323;50.874;7.028;2023-03-01T10:51:47;16.37;;;6.77;;
71503;SDS011;59323;50.874;7.028;2023-03-01T10:54:25;14.57;;;6.32;;
71503;SDS011;59323;50.874;7.028;2023-03-01T10:56:55;13.77;;;6.22;;
71503;SDS011;59323;50.874;7.028;2023-03-01T10:59:25;15.52;;;6.60;;
71503;SDS011;59323;50.874;7.028;2023-03-01T11:04:34;16.93;;;6.90;;
71503;SDS011;59323;50.874;7.028;2023-03-01T11:07:00;15.93;;;6.22;;
71503;SDS011;59323;50.874;7.028;2023-03-01T11:09:29;16.98;;;7.00;;
71503;SDS011;59323;50.874;7.028;2023-03-01T11:12:02;16.63;;;7.20;;
71503;SDS011;59323;50.874;7.028;2023-03-01T11:14:38;13.57;;;6.43;;
71503;SDS011;59323;50.874;7.028;2023-03-01T11:17:15;13.70;;;6.18;;
71503;SDS011;59323;50.874;7.028;2023-03-01T11:20:16;14.85;;;6.40;;
71503;SDS011;59323;50.874;7.028;2023-03-01T11:22:51;15.38;;;6.45;;
71503;SDS011;59323;50.874;7.028;2023-03-01T11:25:19;16.50;;;6.80;;
71503;SDS011;59323;50.874;7.028;2023-03-01T11:27:48;13.55;;;6.35;;
71503;SDS011;59323;50.874;7.028;2023-03-01T11:32:47;15.38;;;6.63;;
71503;SDS011;59323;50.874;7.028;2023-03-01T11:35:19;15.00;;;6.53;;
71503;SDS011;59323;50.874;7.028;2023-03-01T11:37:58;16.08;;;7.15;;
71503;SDS011;59323;50.874;7.028;2023-03-01T11:46:24;13.13;;;6.22;;
71503;SDS011;59323;50.874;7.028;2023-03-01T11:48:57;14.40;;;6.00;;
71503;SDS011;59323;50.874;7.028;2023-03-01T12:05:45;17.60;;;6.15;;
71503;SDS011;59323;50.874;7.028;2023-03-01T12:14:04;13.05;;;5.47;;
71503;SDS011;59323;50.874;7.028;2023-03-01T12:17:02;12.30;;;5.27;;
71503;SDS011;59323;50.874;7.028;2023-03-01T12:22:31;12.57;;;5.50;;
71503;SDS011;59323;50.874;7.028;2023-03-01T12:38:21;13.55;;;5.40;;
71503;SDS011;59323;50.874;7.028;2023-03-01T12:49:30;12.65;;;5.53;;
71503;SDS011;59323;50.874;7.028;2023-03-01T12:52:00;12.73;;;5.38;;
71503;SDS011;59323;50.874;7.028;2023-03-01T12:54:35;12.95;;;5.30;;
71503;SDS011;59323;50.874;7.028;2023-03-01T13:06:02;12.82;;;4.90;;
71503;SDS011;59323;50.874;7.028;2023-03-01T13:08:23;12.30;;;5.00;;
71503;SDS011;59323;50.874;7.028;2023-03-01T13:11:05;11.87;;;5.20;;
71503;SDS011;59323;50.874;7.028;2023-03-01T13:13:36;11.23;;;4.78;;
71503;SDS011;59323;50.874;7.028;2023-03-01T13:21:48;9.75;;;4.63;;
71503;SDS011;59323;50.874;7.028;2023-03-01T13:27:11;13.32;;;5.60;;
71503;SDS011;59323;50.874;7.028;2023-03-01T13:29:50;12.20;;;5.07;;
71503;SDS011;59323;50.874;7.028;2023-03-01T13:32:27;11.43;;;4.78;;
71503;SDS011;59323;50.874;7.028;2023-03-01T13:37:50;13.10;;;4.63;;
71503;SDS011;59323;50.874;7.028;2023-03-01T13:43:29;14.07;;;4.93;;
71503;SDS011;59323;50.874;7.028;2023-03-01T13:45:48;11.48;;;4.53;;
71503;SDS011;59323;50.874;7.028;2023-03-01T13:48:20;11.63;;;5.30;;
71503;SDS011;59323;50.874;7.028;2023-03-01T13:50:50;12.02;;;4.43;;
71503;SDS011;59323;50.874;7.028;2023-03-01T13:53:23;10.48;;;4.18;;
71503;SDS011;59323;50.874;7.028;2023-03-01T13:55:52;11.25;;;4.70;;
71503;SDS011;59323;50.874;7.028;2023-03-01T13:58:26;11.80;;;4.70;;
71503;SDS011;59323;50.874;7.028;2023-03-01T14:00:57;11.80;;;4.80;;
71503;SDS011;59323;50.874;7.028;2023-03-01T14:03:33;9.77;;;4.30;;
71503;SDS011;59323;50.874;7.028;2023-03-01T14:06:16;11.77;;;5.20;;
71503;SDS011;59323;50.874;7.028;2023-03-01T14:08:46;12.82;;;4.95;;
71503;SDS011;59323;50.874;7.028;2023-03-01T14:19:34;11.23;;;4.80;;
71503;SDS011;59323;50.874;7.028;2023-03-01T14:22:20;14.17;;;4.93;;
71503;SDS011;59323;50.874;7.028;2023-03-01T14:24:49;10.77;;;5.28;;
71503;SDS011;59323;50.874;7.028;2023-03-01T14:27:15;10.13;;;4.43;;
71503;SDS011;59323;50.874;7.028;2023-03-01T14:29:53;12.93;;;5.20;;
71503;SDS011;59323;50.874;7.028;2023-03-01T14:32:25;12.85;;;5.15;;
71503;SDS011;59323;50.874;7.028;2023-03-01T14:34:51;12.00;;;4.80;;
71503;SDS011;59323;50.874;7.028;2023-03-01T14:37:22;13.10;;;5.05;;
71503;SDS011;59323;50.874;7.028;2023-03-01T14:39:52;12.47;;;4.80;;
71503;SDS011;59323;50.874;7.028;2023-03-01T14:42:19;10.13;;;4.63;;
71503;SDS011;59323;50.874;7.028;2023-03-01T14:44:52;11.93;;;5.00;;
71503;SDS011;59323;50.874;7.028;2023-03-01T14:47:27;10.57;;;4.70;;
71503;SDS011;59323;50.874;7.028;2023-03-01T14:50:08;11.20;;;4.60;;
71503;SDS011;59323;50.874;7.028;2023-03-01T14:52:46;11.87;;;4.33;;
71503;SDS011;59323;50.874;7.028;2023-03-01T14:55:16;15.32;;;5.75;;
71503;SDS011;59323;50.874;7.028;2023-03-01T14:57:46;15.60;;;5.40;;
71503;SDS011;59323;50.874;7.028;2023-03-01T15:00:23;11.27;;;4.07;;
71503;SDS011;59323;50.874;7.028;2023-03-01T15:02:51;9.57;;;4.10;;
71503;SDS011;59323;50.874;7.028;2023-03-01T15:05:22;11.20;;;4.63;;
71503;SDS011;59323;50.874;7.028;2023-03-01T15:07:59;12.95;;;4.90;;
71503;SDS011;59323;50.874;7.028;2023-03-01T15:10:27;13.70;;;5.50;;
71503;SDS011;59323;50.874;7.028;2023-03-01T15:12:55;13.02;;;5.38;;
71503;SDS011;59323;50.874;7.028;2023-03-01T15:17:54;14.20;;;5.17;;
71503;SDS011;59323;50.874;7.028;2023-03-01T15:20:24;14.02;;;5.28;;
71503;SDS011;59323;50.874;7.028;2023-03-01T15:22:54;9.98;;;4.53;;
71503;SDS011;59323;50.874;7.028;2023-03-01T15:25:22;10.55;;;4.95;;
71503;SDS011;59323;50.874;7.028;2023-03-01T15:27:50;11.80;;;4.68;;
71503;SDS011;59323;50.874;7.028;2023-03-01T15:30:17;12.87;;;5.10;;
71503;SDS011;59323;50.874;7.028;2023-03-01T15:32:48;12.00;;;4.68;;
71503;SDS011;59323;50.874;7.028;2023-03-01T15:35:45;13.25;;;5.15;;
71503;SDS011;59323;50.874;7.028;2023-03-01T15:41:26;13.30;;;5.32;;
71503;SDS011;59323;50.874;7.028;2023-03-01T15:43:56;14.40;;;5.57;;
71503;SDS011;59323;50.874;7.028;2023-03-01T15:46:23;11.15;;;5.05;;
71503;SDS011;59323;50.874;7.028;2023-03-01T15:49:04;11.88;;;5.00;;
71503;SDS011;59323;50.874;7.028;2023-03-01T15:51:45;11.63;;;4.72;;
71503;SDS011;59323;50.874;7.028;2023-03-01T15:54:20;13.70;;;4.90;;
71503;SDS011;59323;50.874;7.028;2023-03-01T15:56:48;13.25;;;5.28;;
71503;SDS011;59323;50.874;7.028;2023-03-01T15:59:13;11.07;;;4.55;;
71503;SDS011;59323;50.874;7.028;2023-03-01T16:01:40;11.50;;;4.40;;
71503;SDS011;59323;50.874;7.028;2023-03-01T16:04:05;15.43;;;5.20;;
71503;SDS011;59323;50.874;7.028;2023-03-01T16:06:33;14.60;;;4.90;;
71503;SDS011;59323;50.874;7.028;2023-03-01T16:09:00;10.43;;;4.07;;
71503;SDS011;59323;50.874;7.028;2023-03-01T16:11:27;13.52;;;5.30;;
71503;SDS011;59323;50.874;7.028;2023-03-01T16:13:52;12.13;;;4.47;;
71503;SDS011;59323;50.874;7.028;2023-03-01T16:16:18;11.07;;;4.50;;
71503;SDS011;59323;50.874;7.028;2023-03-01T16:18:44;12.10;;;4.83;;
71503;SDS011;59323;50.874;7.028;2023-03-01T16:21:12;10.38;;;4.15;;
71503;SDS011;59323;50.874;7.028;2023-03-01T16:24:01;15.32;;;5.63;;
71503;SDS011;59323;50.874;7.028;2023-03-01T16:26:26;17.57;;;6.07;;
71503;SDS011;59323;50.874;7.028;2023-03-01T16:28:54;22.65;;;7.72;;
71503;SDS011;59323;50.874;7.028;2023-03-01T16:31:21;19.80;;;7.77;;
71503;SDS011;59323;50.874;7.028;2023-03-01T16:33:46;16.70;;;5.80;;
71503;SDS011;59323;50.874;7.028;2023-03-01T16:36:15;15.80;;;5.70;;
71503;SDS011;59323;50.874;7.028;2023-03-01T16:38:42;15.20;;;5.65;;
71503;SDS011;59323;50.874;7.028;2023-03-01T16:41:12;15.10;;;6.30;;
71503;SDS011;59323;50.874;7.028;2023-03-01T16:43:39;13.43;;;5.38;;
71503;SDS011;59323;50.874;7.028;2023-03-01T16:49:03;17.75;;;5.57;;
71503;SDS011;59323;50.874;7.028;2023-03-01T16:51:28;14.03;;;4.87;;
71503;SDS011;59323;50.874;7.028;2023-03-01T16:53:57;21.23;;;5.90;;
71503;SDS011;59323;50.874;7.028;2023-03-01T16:56:25;25.27;;;6.77;;
71503;SDS011;59323;50.874;7.028;2023-03-01T16:58:54;14.25;;;5.03;;
71503;SDS011;59323;50.874;7.028;2023-03-01T17:01:20;22.77;;;7.10;;